Time;durP1;ratioP1;P1;durP2;ratioP2;P2;SDS_P1;SDS_P2;PMS_P1;PMS_P2;Temp;Humidity;BMP_temperature;BMP_pressure;BME280_temperature;BME280_humidity;BME280_pressure;Samples;Min_cycle;Max_cycle;Signal;HPM_P1;HPM_P2
2021/01/26 00:00:49;;;;;;;15.93;9.07;;;4.80;80.90;;;;;;5098224;28;20020;-92
2021/01/26 00:03:15;;;;;;;17.80;10.23;;;4.80;80.90;;;;;;5080957;28;20028;-92
2021/01/26 00:05:42;;;;;;;17.55;9.50;;;4.80;81.00;;;;;;5081093;28;20533;-91
2021/01/26 00:08:08;;;;;;;21.02;10.18;;;4.80;81.00;;;;;;5098208;28;20426;-94
2021/01/26 00:10:35;;;;;;;16.63;9.43;;;4.80;81.00;;;;;;5097817;28;20079;-93
2021/01/26 00:13:01;;;;;;;19.45;9.13;;;4.80;81.10;;;;;;5097634;28;20031;-94
2021/01/26 00:15:27;;;;;;;17.65;9.35;;;4.80;81.00;;;;;;5081188;28;20072;-93
2021/01/26 00:17:53;;;;;;;15.57;8.43;;;4.90;81.20;;;;;;5080720;28;20027;-92
2021/01/26 00:20:19;;;;;;;15.35;8.10;;;4.80;81.10;;;;;;5080719;28;20024;-94
2021/01/26 00:22:44;;;;;;;14.25;8.40;;;4.80;81.10;;;;;;5081220;28;20032;-92
2021/01/26 00:25:25;;;;;;;14.82;8.30;;;4.90;81.10;;;;;;5080816;28;20180;-95
2021/01/26 00:27:51;;;;;;;25.20;10.10;;;4.90;81.10;;;;;;5097560;28;20106;-94
2021/01/26 00:30:23;;;;;;;17.83;9.00;;;4.90;81.40;;;;;;5097208;28;20486;-92
2021/01/26 00:32:49;;;;;;;18.13;8.95;;;4.90;81.50;;;;;;5097649;28;20149;-92
2021/01/26 00:35:19;;;;;;;21.02;8.52;;;4.90;81.40;;;;;;5080038;28;20028;-95
2021/01/26 00:37:45;;;;;;;18.77;8.40;;;4.90;81.40;;;;;;5097437;28;20042;-93
2021/01/26 00:40:11;;;;;;;18.23;8.98;;;4.90;81.30;;;;;;5097347;28;20031;-94
2021/01/26 00:42:37;;;;;;;16.95;8.43;;;4.90;81.30;;;;;;5080653;28;20415;-93
2021/01/26 00:45:05;;;;;;;20.05;9.23;;;4.90;81.50;;;;;;5080581;28;20034;-92
2021/01/26 00:47:31;;;;;;;18.40;8.82;;;4.90;81.50;;;;;;5097277;28;20020;-93
2021/01/26 00:49:57;;;;;;;19.83;8.85;;;4.90;81.60;;;;;;5080571;28;20045;-93
2021/01/26 00:52:22;;;;;;;22.85;8.43;;;4.90;81.70;;;;;;5080202;28;20081;-93
2021/01/26 00:54:49;;;;;;;15.63;8.27;;;4.90;81.60;;;;;;5080076;28;20035;-94
2021/01/26 00:57:21;;;;;;;17.17;8.50;;;4.90;81.60;;;;;;5076668;28;20035;-92
2021/01/26 00:59:47;;;;;;;21.23;9.00;;;4.90;81.50;;;;;;5077361;28;20123;-92
2021/01/26 01:02:14;;;;;;;20.92;7.68;;;5.00;81.70;;;;;;5077021;28;20020;-93
2021/01/26 01:04:40;;;;;;;12.32;6.70;;;5.00;81.80;;;;;;5076625;28;20035;-92
2021/01/26 01:07:06;;;;;;;14.88;7.15;;;5.00;81.80;;;;;;5076774;28;20097;-93
2021/01/26 01:09:31;;;;;;;12.43;6.82;;;5.00;81.70;;;;;;5076178;28;20367;-92
2021/01/26 01:11:57;;;;;;;14.55;6.80;;;5.00;81.60;;;;;;5093234;28;20545;-93
2021/01/26 01:14:23;;;;;;;14.75;7.45;;;5.00;81.50;;;;;;5078267;28;20028;-92
2021/01/26 01:16:49;;;;;;;19.58;6.97;;;5.10;81.40;;;;;;5079784;28;20114;-93
2021/01/26 01:19:15;;;;;;;16.55;7.53;;;5.10;81.40;;;;;;5080085;28;20477;-93
2021/01/26 01:21:40;;;;;;;17.20;6.95;;;5.00;81.60;;;;;;5079743;28;20544;-93
2021/01/26 01:24:07;;;;;;;16.63;7.80;;;5.00;81.60;;;;;;5079263;28;20063;-93
2021/01/26 01:26:35;;;;;;;13.80;6.43;;;5.00;81.50;;;;;;5079751;28;20024;-91
2021/01/26 01:29:02;;;;;;;14.65;7.03;;;5.10;81.60;;;;;;5095980;28;20111;-92
2021/01/26 01:31:27;;;;;;;18.67;7.63;;;5.10;81.60;;;;;;5079393;28;20031;-92
2021/01/26 01:33:53;;;;;;;14.52;6.57;;;5.10;81.50;;;;;;5095722;28;20032;-92
2021/01/26 01:36:19;;;;;;;14.75;6.00;;;5.10;81.60;;;;;;5078815;28;20085;-93
2021/01/26 01:38:44;;;;;;;11.50;5.55;;;5.10;81.50;;;;;;5078426;28;20484;-88
2021/01/26 01:41:10;;;;;;;16.48;5.93;;;5.10;81.40;;;;;;5077330;28;20032;-89
2021/01/26 01:43:36;;;;;;;12.10;4.97;;;5.10;81.20;;;;;;5077739;28;20532;-88
2021/01/26 01:46:08;;;;;;;11.98;5.10;;;5.10;81.10;;;;;;5077275;28;20032;-88
2021/01/26 01:48:35;;;;;;;11.93;4.97;;;5.20;81.10;;;;;;5098468;28;20031;-89
2021/01/26 01:51:11;;;;;;;12.88;5.65;;;5.20;81.00;;;;;;5081014;28;20513;-88
2021/01/26 01:53:44;;;;;;;10.60;4.75;;;5.10;80.80;;;;;;5098289;28;20039;-88
2021/01/26 01:56:15;;;;;;;13.13;4.78;;;5.20;80.90;;;;;;5097778;28;20165;-88
2021/01/26 01:58:50;;;;;;;10.85;4.18;;;5.20;80.80;;;;;;5098445;28;20027;-88
2021/01/26 02:01:18;;;;;;;14.60;4.32;;;5.20;80.80;;;;;;5097749;28;20034;-89
2021/01/26 02:03:57;;;;;;;13.60;4.80;;;5.20;80.80;;;;;;5098382;28;20035;-87
2021/01/26 02:06:25;;;;;;;17.25;4.82;;;5.20;81.00;;;;;;5097494;28;20027;-87
2021/01/26 02:08:59;;;;;;;14.02;4.32;;;5.20;81.20;;;;;;5098218;28;20149;-86
2021/01/26 02:11:25;;;;;;;17.70;5.15;;;5.20;81.60;;;;;;5097709;28;20031;-86
2021/01/26 02:13:51;;;;;;;19.13;4.95;;;5.20;81.70;;;;;;5080682;28;20036;-87
2021/01/26 02:16:40;;;;;;;15.55;4.32;;;5.20;81.80;;;;;;5081160;28;20038;-87
2021/01/26 02:19:24;;;;;;;19.90;5.05;;;5.20;81.90;;;;;;5097912;28;20028;-87
2021/01/26 02:22:27;;;;;;;10.38;4.20;;;5.20;81.90;;;;;;5114857;28;20035;-87
2021/01/26 02:25:14;;;;;;;15.52;4.40;;;5.20;81.80;;;;;;5114828;28;20488;-87
2021/01/26 02:27:58;;;;;;;13.15;4.18;;;5.20;81.70;;;;;;5115949;28;20062;-87
2021/01/26 02:30:36;;;;;;;10.75;4.20;;;5.20;81.60;;;;;;5098006;28;20024;-86
2021/01/26 02:33:14;;;;;;;9.60;4.22;;;5.20;81.50;;;;;;5097513;28;20139;-88
2021/01/26 02:36:01;;;;;;;15.52;4.80;;;5.20;81.50;;;;;;5115790;28;20039;-87
2021/01/26 02:38:40;;;;;;;14.43;4.43;;;5.20;81.20;;;;;;5114260;28;20051;-87
2021/01/26 02:41:24;;;;;;;10.43;3.85;;;5.20;81.30;;;;;;5097317;28;20051;-87
2021/01/26 02:44:03;;;;;;;15.95;4.40;;;5.20;81.20;;;;;;5097681;28;20028;-88
2021/01/26 02:46:41;;;;;;;;;;;5.20;81.20;;;;;;5097986;28;20034;-87
2021/01/26 02:49:27;;;;;;;12.20;4.13;;;5.20;81.10;;;;;;5097044;28;19910;-88
2021/01/26 02:52:03;;;;;;;11.48;4.20;;;5.20;81.10;;;;;;5097402;28;20057;-87
2021/01/26 02:54:39;;;;;;;12.98;4.78;;;5.20;81.00;;;;;;5097420;28;20032;-86
2021/01/26 02:57:16;;;;;;;14.50;4.90;;;5.20;81.40;;;;;;5096588;28;20560;-86
2021/01/26 03:00:05;;;;;;;14.10;5.00;;;5.20;81.70;;;;;;5097118;28;21155;-86
2021/01/26 03:02:42;;;;;;;17.38;4.75;;;5.30;82.00;;;;;;5097324;28;20534;-86
2021/01/26 03:05:12;;;;;;;16.77;3.95;;;5.20;82.10;;;;;;5096469;28;20032;-86
2021/01/26 03:07:44;;;;;;;15.13;4.47;;;5.20;82.20;;;;;;5096971;28;20041;-86
2021/01/26 03:10:14;;;;;;;15.02;4.95;;;5.20;82.30;;;;;;5096411;28;20036;-87
2021/01/26 03:12:45;;;;;;;11.52;4.20;;;5.30;82.30;;;;;;5096647;28;20024;-87
2021/01/26 03:15:14;;;;;;;15.20;4.78;;;5.30;82.40;;;;;;5096107;28;20027;-87
2021/01/26 03:17:49;;;;;;;;;;;5.30;82.50;;;;;;5097183;28;20469;-87
2021/01/26 03:20:20;;;;;;;16.15;4.22;;;5.30;82.50;;;;;;5096099;28;19904;-87
2021/01/26 03:22:50;;;;;;;22.10;4.68;;;5.30;82.60;;;;;;5096508;28;20081;-87
2021/01/26 03:25:18;;;;;;;12.63;4.80;;;5.30;82.60;;;;;;5096046;28;20032;-87
2021/01/26 03:27:46;;;;;;;12.93;3.83;;;5.20;82.70;;;;;;5096333;28;20477;-87
2021/01/26 03:30:18;;;;;;;14.75;4.72;;;5.30;82.80;;;;;;5095807;28;20027;-87
2021/01/26 03:32:48;;;;;;;14.13;4.53;;;5.30;82.90;;;;;;5076258;28;20028;-87
2021/01/26 03:35:15;;;;;;;21.20;5.43;;;5.30;82.90;;;;;;5095611;28;20028;-87
2021/01/26 03:37:47;;;;;;;17.83;4.88;;;5.30;82.80;;;;;;5079409;28;20504;-88
2021/01/26 03:40:13;;;;;;;18.15;5.43;;;5.30;82.80;;;;;;5096163;28;20027;-87
2021/01/26 03:42:39;;;;;;;12.25;4.70;;;5.30;82.80;;;;;;5096136;28;20032;-87
2021/01/26 03:45:07;;;;;;;15.70;5.45;;;5.30;82.80;;;;;;5078705;28;20114;-88
2021/01/26 03:47:58;;;;;;;17.90;5.90;;;5.30;82.70;;;;;;5095896;28;20071;-88
2021/01/26 03:50:53;;;;;;;18.55;6.88;;;5.30;82.60;;;;;;5095502;28;20052;-87
2021/01/26 03:53:58;;;;;;;14.52;5.63;;;5.30;82.60;;;;;;5095919;28;20030;-88
2021/01/26 03:56:58;;;;;;;18.48;5.25;;;5.30;82.60;;;;;;5095237;28;20384;-88
2021/01/26 03:59:51;;;;;;;27.58;6.00;;;5.30;82.50;;;;;;5091148;28;20501;-88
2021/01/26 04:03:05;;;;;;;18.95;5.50;;;5.30;82.60;;;;;;5054589;28;20035;-89
2021/01/26 04:05:52;;;;;;;18.23;5.32;;;5.30;82.60;;;;;;5049311;28;20464;-89
2021/01/26 04:08:24;;;;;;;16.63;5.25;;;5.30;82.70;;;;;;5095213;28;20055;-88
2021/01/26 04:11:00;;;;;;;17.33;4.40;;;5.20;82.80;;;;;;5094499;28;20073;-88
2021/01/26 04:13:32;;;;;;;19.83;6.10;;;5.20;82.70;;;;;;5094646;28;20528;-88
2021/01/26 04:16:00;;;;;;;21.45;5.55;;;5.20;83.40;;;;;;5094603;28;20039;-88
2021/01/26 04:18:30;;;;;;;16.30;4.82;;;5.20;82.90;;;;;;5074719;28;20076;-88
2021/01/26 04:20:57;;;;;;;13.52;3.85;;;5.20;82.90;;;;;;5090279;28;20083;-88
2021/01/26 04:23:26;;;;;;;17.23;4.63;;;5.20;83.00;;;;;;5091424;28;20028;-87
2021/01/26 04:25:52;;;;;;;10.95;3.83;;;5.30;83.00;;;;;;5091985;28;20393;-88
2021/01/26 04:28:40;;;;;;;14.25;4.07;;;5.30;83.10;;;;;;5091696;28;20020;-88
2021/01/26 04:31:08;;;;;;;15.75;3.90;;;5.30;83.10;;;;;;5091948;28;20034;-88
2021/01/26 04:33:34;;;;;;;10.95;3.50;;;5.30;83.00;;;;;;5091530;28;20024;-87
2021/01/26 04:36:00;;;;;;;16.05;4.47;;;5.30;82.90;;;;;;5078095;28;20118;-87
2021/01/26 04:38:25;;;;;;;18.83;4.45;;;5.30;83.00;;;;;;5094871;28;20035;-87
2021/01/26 04:40:58;;;;;;;13.82;4.40;;;5.30;83.10;;;;;;5078071;28;20031;-88
2021/01/26 04:43:49;;;;;;;14.40;3.95;;;5.30;83.10;;;;;;5094657;28;20028;-88
2021/01/26 04:46:37;;;;;;;15.18;4.53;;;5.30;83.00;;;;;;5094661;28;20522;-88
2021/01/26 04:49:22;;;;;;;18.92;5.72;;;5.30;83.00;;;;;;5094961;28;20027;-88
2021/01/26 04:52:25;;;;;;;18.63;4.15;;;5.30;82.90;;;;;;5095017;28;20027;-88
2021/01/26 04:54:58;;;;;;;13.77;4.00;;;5.30;82.90;;;;;;5112072;28;20031;-88
2021/01/26 04:57:42;;;;;;;14.48;4.47;;;5.20;82.90;;;;;;5094663;28;20035;-88
2021/01/26 05:00:33;;;;;;;13.75;4.20;;;5.30;82.90;;;;;;5094670;28;20020;-88
2021/01/26 05:03:26;;;;;;;12.15;4.30;;;5.30;82.80;;;;;;5094845;28;20473;-88
2021/01/26 05:05:58;;;;;;;11.70;3.35;;;5.30;82.70;;;;;;5094744;28;20115;-86
2021/01/26 05:08:37;;;;;;;13.07;4.72;;;5.30;82.70;;;;;;5088110;28;20182;-85
2021/01/26 05:11:14;;;;;;;17.33;5.30;;;5.30;82.80;;;;;;5096208;28;20044;-87
2021/01/26 05:13:43;;;;;;;17.67;5.57;;;5.30;82.90;;;;;;5107892;28;20023;-85
2021/01/26 05:16:39;;;;;;;17.35;3.90;;;5.30;83.10;;;;;;5103796;28;20038;-87
2021/01/26 05:19:17;;;;;;;11.63;3.90;;;5.30;83.10;;;;;;5110602;28;20046;-87
2021/01/26 05:21:50;;;;;;;12.68;4.38;;;5.30;83.30;;;;;;5100868;28;20088;-87
2021/01/26 05:24:16;;;;;;;12.40;4.15;;;5.30;83.40;;;;;;5104561;22;20014;-89
2021/01/26 05:26:42;;;;;;;13.38;4.30;;;5.30;83.30;;;;;;5098270;28;20030;-90
2021/01/26 05:29:08;;;;;;;16.17;4.95;;;5.30;83.50;;;;;;5098770;28;20028;-90
2021/01/26 05:31:34;;;;;;;13.15;3.78;;;5.30;83.60;;;;;;5097906;28;20480;-90
2021/01/26 05:34:12;;;;;;;17.73;4.45;;;5.30;83.60;;;;;;5098964;28;20027;-90
2021/01/26 05:36:41;;;;;;;16.07;4.73;;;5.30;83.60;;;;;;5098056;28;20541;-90
2021/01/26 05:39:13;;;;;;;15.50;3.90;;;5.30;83.60;;;;;;5098503;28;20020;-90
2021/01/26 05:41:39;;;;;;;14.15;4.30;;;5.30;83.60;;;;;;5098701;28;20027;-90
2021/01/26 05:44:05;;;;;;;16.48;4.30;;;5.30;83.50;;;;;;5081816;28;20046;-90
2021/01/26 05:46:37;;;;;;;15.57;4.38;;;5.30;83.40;;;;;;5097690;28;20031;-90
2021/01/26 05:49:03;;;;;;;11.85;3.25;;;5.30;83.20;;;;;;5098654;28;20027;-90
2021/01/26 05:51:30;;;;;;;9.98;3.17;;;5.20;83.10;;;;;;5081608;28;20047;-90
2021/01/26 05:53:59;;;;;;;12.88;3.88;;;5.30;83.10;;;;;;5065075;28;20031;-91
2021/01/26 05:56:26;;;;;;;15.07;4.00;;;5.30;82.90;;;;;;5097798;28;20031;-90
2021/01/26 05:58:52;;;;;;;20.50;4.28;;;5.30;82.70;;;;;;5098218;28;20028;-90
2021/01/26 06:01:32;;;;;;;11.13;3.70;;;5.20;82.60;;;;;;5076821;28;20032;-90
2021/01/26 06:04:14;;;;;;;15.93;4.47;;;5.20;82.60;;;;;;5077758;28;20024;-90
2021/01/26 06:07:01;;;;;;;11.85;3.63;;;5.20;82.60;;;;;;5089721;28;20362;-90
2021/01/26 06:09:29;;;;;;;13.45;4.05;;;5.20;82.60;;;;;;5097736;28;20030;-90
2021/01/26 06:12:08;;;;;;;11.02;3.90;;;5.20;82.60;;;;;;5098178;28;20019;-90
2021/01/26 06:14:34;;;;;;;15.65;4.95;;;5.20;82.80;;;;;;5097367;28;20043;-89
2021/01/26 06:17:30;;;;;;;14.35;4.53;;;5.20;83.00;;;;;;5081270;28;20484;-89
2021/01/26 06:20:04;;;;;;;12.68;3.95;;;5.20;83.10;;;;;;5086910;28;20061;-90
2021/01/26 06:22:31;;;;;;;9.68;4.20;;;5.20;83.10;;;;;;5096882;28;20028;-89
2021/01/26 06:24:59;;;;;;;11.52;4.10;;;5.20;83.20;;;;;;5085114;28;20063;-89
2021/01/26 06:27:48;;;;;;;14.60;4.63;;;5.20;83.20;;;;;;5077332;28;20024;-89
2021/01/26 06:30:38;;;;;;;13.52;4.45;;;5.20;83.20;;;;;;5078715;28;20031;-89
2021/01/26 06:33:28;;;;;;;18.60;4.88;;;5.20;83.60;;;;;;5097006;28;20015;-88
2021/01/26 06:36:17;;;;;;;17.05;5.18;;;5.10;83.80;;;;;;5110149;28;20118;-89
2021/01/26 06:39:32;;;;;;;15.20;4.43;;;5.10;83.90;;;;;;5096862;28;20065;-89
2021/01/26 06:42:18;;;;;;;16.85;5.45;;;5.10;84.00;;;;;;4996979;28;20468;-90
2021/01/26 06:45:13;;;;;;;14.05;4.07;;;5.10;84.40;;;;;;5012013;28;20102;-90
2021/01/26 06:48:17;;;;;;;14.40;4.90;;;5.10;84.40;;;;;;5095907;28;20063;-90
2021/01/26 06:50:58;;;;;;;13.30;4.70;;;5.10;84.50;;;;;;5097080;28;20034;-91
2021/01/26 06:53:45;;;;;;;21.60;5.18;;;5.10;84.50;;;;;;5097350;28;20019;-91
2021/01/26 06:56:38;;;;;;;13.23;4.72;;;5.10;84.60;;;;;;5097192;28;20128;-92
2021/01/26 06:59:22;;;;;;;17.85;5.15;;;5.00;84.60;;;;;;5098185;28;20031;-90
2021/01/26 07:02:13;;;;;;;14.25;4.43;;;5.10;84.50;;;;;;5105434;28;20333;-87
2021/01/26 07:05:03;;;;;;;9.88;4.40;;;5.10;84.40;;;;;;5095733;28;20028;-88
2021/01/26 07:08:03;;;;;;;13.60;4.30;;;5.10;84.40;;;;;;5095975;28;20052;-88
2021/01/26 07:10:51;;;;;;;19.77;5.18;;;5.10;84.40;;;;;;5090358;28;20024;-87
2021/01/26 07:13:22;;;;;;;13.93;4.57;;;5.10;84.40;;;;;;5109697;28;20049;-87
2021/01/26 07:16:06;;;;;;;13.18;5.45;;;5.10;84.40;;;;;;5095932;28;20032;-87
2021/01/26 07:19:17;;;;;;;13.90;4.70;;;5.10;84.30;;;;;;5096522;28;20155;-87
2021/01/26 07:22:14;;;;;;;12.30;4.70;;;5.10;84.30;;;;;;5096068;28;20030;-86
2021/01/26 07:25:13;;;;;;;12.65;5.05;;;5.00;84.30;;;;;;5075655;28;20054;-87
2021/01/26 07:27:39;;;;;;;;;;;5.00;84.30;;;;;;5094205;28;20020;-87
2021/01/26 07:30:20;;;;;;;12.32;4.68;;;5.00;84.30;;;;;;5083725;28;20368;-88
2021/01/26 07:33:12;;;;;;;8.70;3.63;;;5.00;84.30;;;;;;5074322;28;20032;-87
2021/01/26 07:35:47;;;;;;;11.50;4.00;;;5.00;84.30;;;;;;5091187;28;20020;-87
2021/01/26 07:38:25;;;;;;;9.45;3.53;;;5.00;84.50;;;;;;5078685;28;20055;-87
2021/01/26 07:41:09;;;;;;;9.48;3.75;;;5.00;84.50;;;;;;5094929;28;20028;-87
2021/01/26 07:44:09;;;;;;;7.38;3.72;;;5.00;84.40;;;;;;5095471;28;20031;-87
2021/01/26 07:46:38;;;;;;;9.35;3.92;;;5.00;84.30;;;;;;5054603;28;20051;-87
2021/01/26 07:49:36;;;;;;;12.57;5.03;;;5.00;84.20;;;;;;5096454;28;20039;-87
2021/01/26 07:52:04;;;;;;;9.23;5.03;;;5.00;84.00;;;;;;5096216;28;20072;-87
2021/01/26 07:54:54;;;;;;;9.47;5.10;;;5.00;84.10;;;;;;5095535;28;20076;-87
2021/01/26 07:57:25;;;;;;;14.30;5.75;;;5.00;84.10;;;;;;5095425;28;20047;-89
2021/01/26 07:59:54;;;;;;;15.65;5.65;;;5.00;84.10;;;;;;5095576;28;20027;-87
2021/01/26 08:02:24;;;;;;;11.77;5.20;;;5.00;84.20;;;;;;5091251;28;20051;-87
2021/01/26 08:04:50;;;;;;;15.68;5.82;;;5.00;84.20;;;;;;5089921;28;20461;-86
2021/01/26 08:07:28;;;;;;;15.85;5.57;;;5.00;84.00;;;;;;5078295;28;20036;-87
2021/01/26 08:09:55;;;;;;;15.43;5.53;;;5.00;84.10;;;;;;5095128;28;20027;-87
2021/01/26 08:12:41;;;;;;;13.93;4.95;;;5.00;84.00;;;;;;5060408;28;20043;-87
2021/01/26 08:15:12;;;;;;;14.02;5.22;;;5.10;84.10;;;;;;5097725;28;20067;-87
2021/01/26 08:17:39;;;;;;;18.38;5.55;;;5.00;84.20;;;;;;5094352;28;20059;-88
2021/01/26 08:20:10;;;;;;;20.13;5.43;;;5.00;84.10;;;;;;5077727;28;20052;-86
2021/01/26 08:22:45;;;;;;;12.07;4.65;;;5.00;84.00;;;;;;5094599;28;20024;-86
2021/01/26 08:25:23;;;;;;;11.88;4.75;;;5.00;84.00;;;;;;5094096;28;20051;-86
2021/01/26 08:28:05;;;;;;;11.82;4.18;;;5.10;83.90;;;;;;5094931;28;20457;-86
2021/01/26 08:30:33;;;;;;;9.57;4.68;;;5.10;83.80;;;;;;5095614;28;20016;-85
2021/01/26 08:33:17;;;;;;;9.98;4.20;;;5.00;83.80;;;;;;5094326;28;20056;-86
2021/01/26 08:36:09;;;;;;;14.43;5.05;;;5.10;83.80;;;;;;5089666;28;20043;-86
2021/01/26 08:38:53;;;;;;;12.25;4.38;;;5.10;83.80;;;;;;5092969;28;20370;-86
2021/01/26 08:41:39;;;;;;;12.10;4.45;;;5.10;83.80;;;;;;5091825;28;20024;-85
2021/01/26 08:44:07;;;;;;;10.55;4.38;;;5.10;83.70;;;;;;5086150;28;20035;-86
2021/01/26 08:46:41;;;;;;;18.02;5.40;;;5.10;83.60;;;;;;5094821;28;20299;-86
2021/01/26 08:49:31;;;;;;;10.52;4.45;;;5.10;83.70;;;;;;5094979;28;20073;-86
2021/01/26 08:52:25;;;;;;;8.85;4.05;;;5.10;83.60;;;;;;5094661;28;20020;-86
2021/01/26 08:54:53;;;;;;;13.02;4.43;;;5.10;83.50;;;;;;5094156;28;20096;-85
2021/01/26 08:57:27;;;;;;;16.33;4.53;;;5.10;83.50;;;;;;5077693;28;20065;-85
2021/01/26 08:59:54;;;;;;;10.32;4.60;;;5.10;83.60;;;;;;5094357;28;20493;-88
2021/01/26 09:02:37;;;;;;;11.13;4.53;;;5.10;83.80;;;;;;5077272;28;20487;-87
2021/01/26 09:05:04;;;;;;;15.02;5.40;;;5.10;83.90;;;;;;5094170;28;20032;-87
2021/01/26 09:07:54;;;;;;;9.63;4.45;;;5.10;84.00;;;;;;5078147;28;20104;-87
2021/01/26 09:10:48;;;;;;;11.88;4.68;;;5.10;84.00;;;;;;5090726;28;20473;-87
2021/01/26 09:13:27;;;;;;;7.93;4.38;;;5.10;83.90;;;;;;5070696;28;20489;-88
2021/01/26 09:15:57;;;;;;;10.77;4.78;;;5.10;83.90;;;;;;5074293;28;20081;-87
2021/01/26 09:18:26;;;;;;;14.93;4.70;;;5.10;83.90;;;;;;5074513;28;20504;-85
2021/01/26 09:20:58;;;;;;;12.00;5.10;;;5.10;84.00;;;;;;5074084;28;20032;-86
2021/01/26 09:23:25;;;;;;;11.50;4.47;;;5.20;84.00;;;;;;5083721;28;20059;-86
2021/01/26 09:25:51;;;;;;;11.43;4.43;;;5.20;84.10;;;;;;5075112;28;20051;-85
2021/01/26 09:28:21;;;;;;;10.40;4.55;;;5.20;84.10;;;;;;5075750;28;20557;-84
2021/01/26 09:30:47;;;;;;;14.55;4.85;;;5.30;84.10;;;;;;5074955;28;20534;-84
2021/01/26 09:33:17;;;;;;;7.18;3.42;;;5.30;84.10;;;;;;5075293;28;20035;-84
2021/01/26 09:35:51;;;;;;;9.35;3.92;;;5.30;84.00;;;;;;5074846;28;20358;-84
2021/01/26 09:38:21;;;;;;;11.90;4.20;;;5.30;83.90;;;;;;5087596;28;20020;-85
2021/01/26 09:41:05;;;;;;;11.18;4.43;;;5.40;84.00;;;;;;5094201;28;20020;-85
2021/01/26 09:43:39;;;;;;;10.98;4.18;;;5.40;84.00;;;;;;5094575;28;20020;-85
2021/01/26 09:46:07;;;;;;;9.63;4.00;;;5.40;83.90;;;;;;5088910;28;20040;-85
2021/01/26 09:48:42;;;;;;;10.43;4.20;;;5.40;84.50;;;;;;5093938;28;20492;-85
2021/01/26 09:51:22;;;;;;;11.00;3.60;;;5.40;83.80;;;;;;5093412;28;20028;-85
2021/01/26 09:53:58;;;;;;;10.55;4.03;;;5.40;83.70;;;;;;5093709;28;20037;-85
2021/01/26 09:56:25;;;;;;;7.93;3.92;;;5.30;83.50;;;;;;5094097;28;20404;-87
2021/01/26 09:58:54;;;;;;;12.55;3.67;;;5.40;83.60;;;;;;5094421;28;20031;-88
2021/01/26 10:01:21;;;;;;;10.80;4.47;;;5.30;83.50;;;;;;5078734;28;20476;-87
2021/01/26 10:03:52;;;;;;;7.07;3.40;;;5.30;83.60;;;;;;5094495;28;20027;-88
2021/01/26 10:06:19;;;;;;;12.55;4.95;;;5.30;84.20;;;;;;5094916;28;20111;-87
2021/01/26 10:08:45;;;;;;;8.00;4.20;;;5.40;83.70;;;;;;5096768;28;20024;-88
2021/01/26 10:11:18;;;;;;;9.75;4.57;;;5.40;83.70;;;;;;5081670;28;20567;-87
2021/01/26 10:13:46;;;;;;;8.50;4.40;;;5.40;83.80;;;;;;5097215;28;20016;-86
2021/01/26 10:16:25;;;;;;;10.60;4.72;;;5.50;83.80;;;;;;5088328;28;20027;-88
2021/01/26 10:18:51;;;;;;;10.90;4.75;;;5.50;83.80;;;;;;5099547;28;20018;-87
2021/01/26 10:21:29;;;;;;;10.57;5.15;;;5.50;83.90;;;;;;5099168;28;20027;-87
2021/01/26 10:24:12;;;;;;;12.20;4.72;;;5.50;84.00;;;;;;5099300;28;20032;-87
2021/01/26 10:26:41;;;;;;;11.07;4.75;;;5.60;84.00;;;;;;5098847;28;20116;-88
2021/01/26 10:29:11;;;;;;;11.10;5.65;;;5.60;83.80;;;;;;5099261;28;20222;-87
2021/01/26 10:31:59;;;;;;;11.38;5.40;;;5.60;83.80;;;;;;5098207;28;20027;-88
2021/01/26 10:34:30;;;;;;;13.27;6.15;;;5.70;84.00;;;;;;5097726;28;20032;-87
2021/01/26 10:37:30;;;;;;;10.00;5.97;;;5.70;83.90;;;;;;5097064;28;20054;-87
2021/01/26 10:40:04;;;;;;;15.90;7.10;;;5.70;83.90;;;;;;5096838;28;20024;-87
2021/01/26 10:42:31;;;;;;;19.63;7.40;;;5.70;84.10;;;;;;5098196;28;20488;-87
2021/01/26 10:45:00;;;;;;;11.82;6.30;;;5.70;84.30;;;;;;5087974;28;20055;-87
2021/01/26 10:47:33;;;;;;;17.98;7.47;;;5.70;84.30;;;;;;5081577;28;20027;-87
2021/01/26 10:50:00;;;;;;;11.18;5.30;;;5.80;84.70;;;;;;5098004;28;20016;-87
2021/01/26 10:52:46;;;;;;;13.45;6.50;;;5.80;84.60;;;;;;5116327;28;20141;-87
2021/01/26 10:55:14;;;;;;;12.02;5.78;;;5.80;84.70;;;;;;5097177;28;20032;-87
2021/01/26 10:57:41;;;;;;;11.50;5.38;;;5.80;84.50;;;;;;5097833;28;20084;-87
2021/01/26 11:00:09;;;;;;;13.57;5.72;;;5.90;84.60;;;;;;5112518;28;20480;-87
2021/01/26 11:02:34;;;;;;;11.30;4.75;;;5.90;84.50;;;;;;5094771;28;20032;-87
2021/01/26 11:05:00;;;;;;;10.73;5.05;;;6.00;84.50;;;;;;5093423;28;20076;-88
2021/01/26 11:07:26;;;;;;;11.20;5.50;;;6.00;84.30;;;;;;5115594;28;20024;-87
2021/01/26 11:09:52;;;;;;;12.32;5.10;;;6.10;84.40;;;;;;5071017;28;20023;-87
2021/01/26 11:12:21;;;;;;;14.93;5.40;;;6.10;84.40;;;;;;5081148;28;20028;-88
2021/01/26 11:14:48;;;;;;;17.77;6.43;;;6.10;84.30;;;;;;5097607;28;20038;-87
2021/01/26 11:17:17;;;;;;;11.85;4.88;;;6.20;84.50;;;;;;5080977;28;20148;-88
2021/01/26 11:19:47;;;;;;;10.63;5.13;;;6.20;84.50;;;;;;5081105;28;20027;-88
2021/01/26 11:22:13;;;;;;;12.77;5.05;;;6.20;84.30;;;;;;5098029;28;20035;-88
2021/01/26 11:24:42;;;;;;;15.80;5.78;;;6.30;84.30;;;;;;5078885;23;20382;-88
2021/01/26 11:27:08;;;;;;;11.40;5.43;;;6.30;84.20;;;;;;5057720;28;20025;-88
2021/01/26 11:29:34;;;;;;;13.05;5.03;;;6.30;84.10;;;;;;5073710;28;20133;-87
2021/01/26 11:32:00;;;;;;;9.50;5.30;;;6.40;84.00;;;;;;5057301;28;20024;-87
2021/01/26 11:34:25;;;;;;;11.00;4.93;;;6.50;83.90;;;;;;5068821;28;20021;-87
2021/01/26 11:36:51;;;;;;;12.00;4.93;;;6.40;83.90;;;;;;5037264;28;20076;-87
2021/01/26 11:39:17;;;;;;;9.73;5.28;;;6.50;83.90;;;;;;5037546;28;20021;-88
2021/01/26 11:41:43;;;;;;;16.27;6.07;;;6.50;83.80;;;;;;5056199;28;20059;-87
2021/01/26 11:44:08;;;;;;;15.05;5.55;;;6.50;83.80;;;;;;5057345;28;20098;-88
2021/01/26 11:46:37;;;;;;;12.93;5.10;;;6.50;83.90;;;;;;5056997;28;20461;-87
2021/01/26 11:49:03;;;;;;;16.13;5.57;;;6.60;83.90;;;;;;5057000;28;20023;-87
2021/01/26 11:51:28;;;;;;;11.90;4.75;;;6.60;84.00;;;;;;5073893;28;20028;-87
2021/01/26 11:53:54;;;;;;;13.50;5.40;;;6.60;83.90;;;;;;5056893;28;20058;-87
2021/01/26 11:56:22;;;;;;;11.60;5.18;;;6.60;83.70;;;;;;5073691;28;20028;-87
2021/01/26 11:58:48;;;;;;;8.32;4.70;;;6.70;83.60;;;;;;5057252;28;20036;-87
2021/01/26 12:01:15;;;;;;;14.80;5.90;;;6.70;83.50;;;;;;5056915;28;20024;-88
2021/01/26 12:03:41;;;;;;;9.93;5.35;;;6.70;83.30;;;;;;5056880;28;20071;-87
2021/01/26 12:06:07;;;;;;;10.02;4.65;;;6.70;83.20;;;;;;5056597;28;20060;-87
2021/01/26 12:08:33;;;;;;;10.65;4.53;;;6.70;83.20;;;;;;5057001;28;20021;-88
2021/01/26 12:10:59;;;;;;;12.85;5.03;;;6.70;83.10;;;;;;5073503;28;20027;-88
2021/01/26 12:13:24;;;;;;;10.60;5.30;;;6.70;82.90;;;;;;5056511;28;20044;-87
2021/01/26 12:15:50;;;;;;;19.70;6.05;;;6.80;82.80;;;;;;5056747;28;20444;-87
2021/01/26 12:18:16;;;;;;;8.93;4.97;;;6.80;82.70;;;;;;5056709;28;20041;-87
2021/01/26 12:20:42;;;;;;;12.13;4.85;;;6.80;82.60;;;;;;5073311;28;20359;-87
2021/01/26 12:23:08;;;;;;;10.15;4.53;;;6.90;82.70;;;;;;5073444;28;20477;-87
2021/01/26 12:25:35;;;;;;;9.57;5.07;;;6.90;82.60;;;;;;5056213;28;20045;-87
2021/01/26 12:28:03;;;;;;;8.82;5.00;;;7.00;82.50;;;;;;5073097;28;20020;-87
2021/01/26 12:30:29;;;;;;;12.80;5.32;;;7.00;82.40;;;;;;5073581;28;20035;-88
2021/01/26 12:32:55;;;;;;;12.80;5.60;;;7.00;81.70;;;;;;5073420;28;20477;-87
2021/01/26 12:35:36;;;;;;;14.70;5.30;;;7.00;81.50;;;;;;5072861;28;20105;-87
2021/01/26 12:38:03;;;;;;;13.00;5.03;;;7.00;81.50;;;;;;5073139;28;20070;-87
2021/01/26 12:40:29;;;;;;;12.63;5.30;;;7.00;81.50;;;;;;5056527;28;20029;-88
2021/01/26 12:42:54;;;;;;;12.93;4.90;;;7.10;82.10;;;;;;5056289;28;20032;-87
2021/01/26 12:45:25;;;;;;;9.88;5.07;;;7.10;81.50;;;;;;5072494;28;20355;-87
2021/01/26 12:47:51;;;;;;;12.30;5.30;;;7.10;81.20;;;;;;5072703;28;20021;-87
2021/01/26 12:50:19;;;;;;;13.82;4.90;;;7.10;81.10;;;;;;5072690;28;20013;-86
2021/01/26 12:52:45;;;;;;;9.98;4.20;;;7.20;81.70;;;;;;5072611;28;20028;-87
2021/01/26 12:55:11;;;;;;;13.23;4.35;;;7.20;81.10;;;;;;5056127;28;20033;-87
2021/01/26 12:57:37;;;;;;;10.43;4.80;;;7.30;81.10;;;;;;5072384;28;20493;-86
2021/01/26 13:00:08;;;;;;;13.73;4.72;;;7.30;80.80;;;;;;5072530;28;20028;-87
2021/01/26 13:02:34;;;;;;;10.50;5.32;;;7.30;80.50;;;;;;5055848;28;20048;-86
2021/01/26 13:04:59;;;;;;;10.02;4.95;;;7.30;80.30;;;;;;5054645;28;20493;-85
2021/01/26 13:07:25;;;;;;;10.82;5.03;;;7.30;80.10;;;;;;5071878;28;20028;-86
2021/01/26 13:09:51;;;;;;;12.18;5.63;;;7.30;80.00;;;;;;5056171;28;20028;-87
2021/01/26 13:12:17;;;;;;;9.80;4.93;;;7.30;80.00;;;;;;5056425;28;20025;-87
2021/01/26 13:14:43;;;;;;;12.52;5.40;;;7.40;80.10;;;;;;5056033;28;20032;-86
2021/01/26 13:17:09;;;;;;;13.02;5.50;;;7.40;79.80;;;;;;5055690;28;20136;-87
2021/01/26 13:19:34;;;;;;;8.32;5.18;;;7.40;79.40;;;;;;5050179;28;20087;-86
2021/01/26 13:22:00;;;;;;;9.90;5.93;;;7.40;79.10;;;;;;5046116;28;20067;-85